createdAt,value
2022-09-18T00:00:18.439Z,1.00
2022-09-18T00:06:12.370Z,1.00
2022-09-18T00:12:04.960Z,1.00
2022-09-18T00:15:12.971Z,1.00
2022-09-18T00:18:03.483Z,1.00
2022-09-18T00:28:05.279Z,2.60
2022-09-18T00:30:35.581Z,1.00
2022-09-18T00:33:37.592Z,1.00
2022-09-18T00:39:24.294Z,1.00
2022-09-18T00:45:24.666Z,1.00
2022-09-18T00:48:02.838Z,1.00
2022-09-18T01:00:46.088Z,1.00
2022-09-18T01:09:28.505Z,1.00
2022-09-18T01:12:26.369Z,1.00
2022-09-18T01:15:22.092Z,1.00
2022-09-18T01:17:52.773Z,1.00
2022-09-18T01:20:42.882Z,1.00
2022-09-18T01:23:28.221Z,1.00
2022-09-18T01:26:03.542Z,1.00
2022-09-18T01:28:44.972Z,1.00
2022-09-18T01:31:49.129Z,1.00
2022-09-18T01:34:19.460Z,1.00
2022-09-18T01:36:50.562Z,1.00
2022-09-18T01:39:24.205Z,1.00
2022-09-18T01:41:53.408Z,1.00
2022-09-18T01:44:24.034Z,1.00
2022-09-18T01:46:53.602Z,1.00
2022-09-18T01:49:24.012Z,1.00
2022-09-18T01:51:53.239Z,1.00
2022-09-18T01:54:22.773Z,4.50
2022-09-18T01:56:50.439Z,2.20
2022-09-18T01:59:20.348Z,2.00
2022-09-18T02:02:07.216Z,1.00
2022-09-18T02:04:40.383Z,1.00
2022-09-18T02:07:18.386Z,1.00
2022-09-18T02:09:47.020Z,1.00
2022-09-18T02:12:19.584Z,1.00
2022-09-18T02:14:52.689Z,1.00
2022-09-18T02:17:42.060Z,1.00
2022-09-18T02:20:14.012Z,1.00
2022-09-18T02:22:44.259Z,1.00
2022-09-18T02:25:15.339Z,1.00
2022-09-18T02:27:44.864Z,1.00
2022-09-18T02:30:12.371Z,1.00
2022-09-18T02:32:40.270Z,1.00
2022-09-18T02:35:09.457Z,1.00
2022-09-18T02:37:55.471Z,1.00
2022-09-18T02:40:32.996Z,1.00
2022-09-18T02:43:06.542Z,1.00
2022-09-18T02:45:40.882Z,1.00
2022-09-18T02:48:26.625Z,1.00
2022-09-18T02:51:22.031Z,1.00
2022-09-18T02:53:57.569Z,1.00
2022-09-18T02:56:37.755Z,1.00
2022-09-18T02:59:23.851Z,1.00
2022-09-18T03:01:57.229Z,1.00
2022-09-18T03:04:28.674Z,1.00
2022-09-18T03:07:05.342Z,1.00
2022-09-18T03:09:40.474Z,1.00
2022-09-18T03:12:08.727Z,1.00
2022-09-18T03:14:40.967Z,1.00
2022-09-18T03:17:09.982Z,1.00
2022-09-18T03:19:39.760Z,1.00
2022-09-18T03:22:11.912Z,1.00
2022-09-18T03:24:41.975Z,1.00
2022-09-18T03:27:13.416Z,1.00
2022-09-18T03:29:42.789Z,1.00
2022-09-18T03:32:13.115Z,1.00
2022-09-18T03:35:05.724Z,1.00
2022-09-18T03:37:37.054Z,1.00
2022-09-18T03:40:47.186Z,1.00
2022-09-18T03:43:25.673Z,1.00
2022-09-18T03:45:57.330Z,1.00
2022-09-18T03:51:10.187Z,1.00
2022-09-18T03:53:37.763Z,1.00
2022-09-18T03:56:32.352Z,1.00
2022-09-18T03:59:13.888Z,1.00
2022-09-18T04:02:04.300Z,1.00
2022-09-18T04:04:53.189Z,1.00
2022-09-18T04:08:15.633Z,1.00
2022-09-18T04:11:10.301Z,1.00
2022-09-18T04:13:39.509Z,1.00
2022-09-18T04:19:02.565Z,1.00
2022-09-18T04:21:32.478Z,1.00
2022-09-18T04:24:01.448Z,1.00
2022-09-18T04:26:30.599Z,1.00
2022-09-18T04:29:08.161Z,1.00
2022-09-18T04:31:37.065Z,1.00
2022-09-18T04:34:15.180Z,1.00
2022-09-18T04:36:44.074Z,1.00
2022-09-18T04:39:13.679Z,1.00
2022-09-18T04:41:56.201Z,1.00
2022-09-18T04:44:30.944Z,1.00
2022-09-18T04:47:07.001Z,1.00
2022-09-18T04:49:37.978Z,1.00
2022-09-18T04:52:06.967Z,1.00
2022-09-18T04:54:38.100Z,7.50
2022-09-18T04:57:07.136Z,1.00
2022-09-18T04:59:36.369Z,1.00
2022-09-18T05:02:05.185Z,1.00
2022-09-18T05:04:45.683Z,1.00
2022-09-18T05:07:35.299Z,1.00
2022-09-18T05:10:05.353Z,1.00
2022-09-18T05:12:37.242Z,1.00
2022-09-18T05:15:08.663Z,1.00
2022-09-18T05:17:40.467Z,1.00
2022-09-18T05:20:12.039Z,1.00
2022-09-18T05:22:45.423Z,14.90
2022-09-18T05:25:22.195Z,13.10
2022-09-18T05:27:57.740Z,27.70
2022-09-18T05:30:28.470Z,27.90
2022-09-18T05:33:13.540Z,68.70
2022-09-18T05:35:49.822Z,9.10
2022-09-18T05:38:21.247Z,1.00
2022-09-18T05:40:52.793Z,1.00
2022-09-18T05:43:30.046Z,1.00
2022-09-18T05:46:03.210Z,1.00
2022-09-18T05:48:46.743Z,1.00
2022-09-18T05:51:26.428Z,1.00
2022-09-18T05:53:55.810Z,1.00
2022-09-18T05:56:29.341Z,1.00
2022-09-18T05:59:08.267Z,1.00
2022-09-18T06:01:46.818Z,1.00
2022-09-18T06:08:05.288Z,1.00
2022-09-18T06:10:52.136Z,1.00
2022-09-18T06:13:23.986Z,1.00
2022-09-18T06:16:02.801Z,1.00
2022-09-18T06:19:10.711Z,1.00
2022-09-18T06:25:41.354Z,1.00
2022-09-18T06:28:18.103Z,1.00
2022-09-18T06:30:54.611Z,1.00
2022-09-18T06:33:42.255Z,1.00
2022-09-18T06:36:33.011Z,1.00
2022-09-18T06:39:32.390Z,1.00
2022-09-18T06:42:08.445Z,1.00
2022-09-18T06:45:06.206Z,1.00
2022-09-18T06:47:55.347Z,1.00
2022-09-18T06:53:20.063Z,1.00
2022-09-18T06:56:04.271Z,1.00
2022-09-18T06:58:41.523Z,1.00
2022-09-18T07:01:13.549Z,1.00
2022-09-18T07:04:35.018Z,1.00
2022-09-18T07:07:48.638Z,1.00
2022-09-18T07:10:44.879Z,1.00
2022-09-18T07:23:25.959Z,1.00
2022-09-18T07:26:19.096Z,1.00
2022-09-18T07:29:31.395Z,1.00
2022-09-18T07:32:10.403Z,1.00
2022-09-18T07:34:56.037Z,1.00
2022-09-18T07:37:28.346Z,1.00
2022-09-18T07:40:12.689Z,1.00
2022-09-18T07:43:20.451Z,1.00
2022-09-18T07:45:54.778Z,1.00
2022-09-18T07:48:27.270Z,1.00
2022-09-18T07:58:21.473Z,1.00
2022-09-18T08:02:01.939Z,1.00
2022-09-18T08:04:58.784Z,1.00
2022-09-18T08:07:57.769Z,1.00
2022-09-18T08:14:20.059Z,1.00
2022-09-18T08:24:15.447Z,1.00
2022-09-18T08:26:44.817Z,99.90
2022-09-18T08:29:19.363Z,99.90
2022-09-18T08:32:12.723Z,99.90
2022-09-18T08:34:40.330Z,99.90
2022-09-18T08:37:07.339Z,99.90
2022-09-18T08:40:10.827Z,99.90
2022-09-18T08:43:12.192Z,99.90
2022-09-18T08:46:14.762Z,99.90
2022-09-18T08:49:14.871Z,99.90
2022-09-18T08:51:52.427Z,99.90
2022-09-18T08:54:33.449Z,99.90
2022-09-18T08:57:23.593Z,99.90
2022-09-18T09:00:23.045Z,99.90
2022-09-18T09:03:17.465Z,99.90
2022-09-18T09:05:49.157Z,99.90
2022-09-18T09:23:14.595Z,99.90
2022-09-18T09:26:06.478Z,99.90
2022-09-18T09:29:51.006Z,99.90
2022-09-18T09:35:30.826Z,99.90
2022-09-18T09:38:52.361Z,99.90
2022-09-18T09:41:37.836Z,99.90
2022-09-18T09:44:14.435Z,99.90
2022-09-18T09:50:01.460Z,99.90
2022-09-18T09:52:31.182Z,99.90
2022-09-18T09:55:18.493Z,99.90
2022-09-18T09:57:58.753Z,99.90
2022-09-18T10:00:26.773Z,99.90
2022-09-18T10:03:16.377Z,99.90
2022-09-18T10:05:53.893Z,99.90
2022-09-18T10:08:44.346Z,99.90
2022-09-18T10:11:13.488Z,99.90
2022-09-18T10:13:49.923Z,99.90
2022-09-18T10:16:22.515Z,99.90
2022-09-18T10:18:50.218Z,99.90
2022-09-18T10:21:19.416Z,99.90
2022-09-18T10:24:00.583Z,99.90
2022-09-18T10:26:31.923Z,99.90
2022-09-18T10:29:05.585Z,99.90
2022-09-18T10:35:08.173Z,99.90
2022-09-18T10:37:36.173Z,99.90
2022-09-18T10:40:29.903Z,99.90
2022-09-18T10:42:58.921Z,99.90
2022-09-18T10:45:54.191Z,99.90
2022-09-18T11:35:01.917Z,99.90
2022-09-18T11:45:17.094Z,99.90
2022-09-18T11:48:12.529Z,99.90
2022-09-18T11:50:52.930Z,99.90
2022-09-18T11:53:49.831Z,99.90
2022-09-18T11:56:41.037Z,99.90
2022-09-18T11:59:46.548Z,99.90
2022-09-18T12:02:53.798Z,99.90
2022-09-18T12:12:10.955Z,99.90
2022-09-18T12:15:01.150Z,99.90
2022-09-18T12:24:20.548Z,99.90
2022-09-18T12:27:02.503Z,99.90
2022-09-18T12:30:05.998Z,99.90
2022-09-18T12:33:16.134Z,99.90
2022-09-18T12:36:24.835Z,99.90
2022-09-18T12:39:04.014Z,99.90
2022-09-18T12:45:55.575Z,99.90
2022-09-18T12:49:03.807Z,99.90
2022-09-18T12:52:33.830Z,99.90
2022-09-18T12:55:44.860Z,99.90
2022-09-18T13:12:24.945Z,99.90
2022-09-18T13:14:55.345Z,99.90
2022-09-18T13:17:37.866Z,99.90
2022-09-18T13:20:11.540Z,99.90
2022-09-18T13:22:38.844Z,99.90
2022-09-18T13:25:23.106Z,99.90
2022-09-18T13:27:50.500Z,99.90
2022-09-18T13:30:26.200Z,99.90
2022-09-18T13:33:02.014Z,99.90
2022-09-18T13:36:04.424Z,99.90
2022-09-18T13:38:33.936Z,99.90
2022-09-18T13:41:06.478Z,99.90
2022-09-18T13:43:36.889Z,99.90
2022-09-18T13:46:07.437Z,99.90
2022-09-18T13:48:37.417Z,99.90
2022-09-18T13:51:05.546Z,99.90
2022-09-18T13:53:40.870Z,99.90
2022-09-18T13:56:13.685Z,99.90
2022-09-18T13:58:45.311Z,99.90
2022-09-18T14:02:00.370Z,99.90
2022-09-18T14:04:39.608Z,99.90
2022-09-18T14:07:19.105Z,99.90
2022-09-18T14:09:47.539Z,99.90
2022-09-18T14:12:15.722Z,99.90
2022-09-18T14:14:44.096Z,99.90
2022-09-18T14:17:18.851Z,99.90
2022-09-18T14:19:50.353Z,99.90
2022-09-18T14:22:25.246Z,99.90
2022-09-18T14:40:42.241Z,99.90
2022-09-18T14:43:50.926Z,99.90
2022-09-18T14:46:24.167Z,99.90
2022-09-18T14:49:16.085Z,99.90
2022-09-18T14:52:03.861Z,99.90
2022-09-18T14:54:43.970Z,99.90
2022-09-18T15:04:26.809Z,99.90
2022-09-18T15:07:01.763Z,99.90
2022-09-18T16:13:02.721Z,99.90
2022-09-18T17:43:19.551Z,99.90
2022-09-18T17:46:19.433Z,99.90
2022-09-18T18:04:47.492Z,99.90
2022-09-18T18:16:42.955Z,99.90
2022-09-18T18:25:35.598Z,99.90
2022-09-18T18:28:37.706Z,99.90
2022-09-18T18:35:06.524Z,99.90
2022-09-18T18:56:45.924Z,99.90
2022-09-18T19:00:35.230Z,99.90
2022-09-18T19:03:40.972Z,99.90
2022-09-18T19:12:38.031Z,99.90
2022-09-18T19:39:54.398Z,99.90
2022-09-18T19:49:30.812Z,99.90
2022-09-18T19:53:07.050Z,99.90
2022-09-18T19:56:42.280Z,99.90
2022-09-18T20:09:31.087Z,99.90
2022-09-18T21:06:22.802Z,99.90
2022-09-18T21:08:55.414Z,99.90
2022-09-18T21:17:40.675Z,99.90
2022-09-18T21:20:17.703Z,99.90
2022-09-18T21:23:13.884Z,99.90
2022-09-18T21:25:48.750Z,99.90
2022-09-18T21:31:55.933Z,99.90
2022-09-18T21:34:41.336Z,99.90
2022-09-18T21:37:30.236Z,99.90
2022-09-18T21:40:27.394Z,99.90
2022-09-18T21:42:55.972Z,99.90
2022-09-18T22:01:33.810Z,99.90
2022-09-18T22:11:07.208Z,99.90
2022-09-18T22:20:45.272Z,99.90
2022-09-18T22:30:43.948Z,99.90
2022-09-18T22:37:25.915Z,99.90
2022-09-18T22:40:29.076Z,99.90
2022-09-18T23:05:30.090Z,99.90
2022-09-18T23:08:30.573Z,99.90
2022-09-18T23:12:05.306Z,99.90
2022-09-18T23:24:36.172Z,99.90
2022-09-18T23:43:19.008Z,99.90
